<?xml version="1.0" encoding="utf-8"?>
<gpx xmlns:xsi="http://www.w3.org/2001/XMLSchema-instance" xmlns:xsd="http://www.w3.org/2001/XMLSchema" version="1.1" creator="Shapelink.com" xmlns="http://www.topografix.com/GPX/1/1" xmlns:gpxtpx="http://www.garmin.com/xmlschemas/TrackPointExtension/v1">
  <metadata>
    <name>Løping 4.81 km, 2019-03-28</name>
    <desc></desc>
    <author><name>Stefan Östlund</name></author> 
    <time>2019-03-28T12:00:00Z</time>
  </metadata>
  <trk>
    <name>Løping 4.81 km, 2019-03-28</name>
    <trkseg>
      <trkpt lat="59.982186658608" lon="15.792368132478">
        <ele>99.4</ele>
        <time>2019-03-28T12:00:00Z</time>
      </trkpt>
      <trkpt lat="59.982064534325" lon="15.792502242878">
        <ele>99</ele>
        <time>2019-03-28T12:00:06Z</time>
      </trkpt>
      <trkpt lat="59.981966549914" lon="15.792735678793">
        <ele>98.8</ele>
        <time>2019-03-28T12:00:12Z</time>
      </trkpt>
      <trkpt lat="59.981932267943" lon="15.792842967113">
        <ele>98.4</ele>
        <time>2019-03-28T12:00:14Z</time>
      </trkpt>
      <trkpt lat="59.981813664058" lon="15.793035666994">
        <ele>98.2</ele>
        <time>2019-03-28T12:00:20Z</time>
      </trkpt>
      <trkpt lat="59.9817229719" lon="15.793159551476">
        <ele>98</ele>
        <time>2019-03-28T12:00:26Z</time>
      </trkpt>
      <trkpt lat="59.981649043542" lon="15.793338672679">
        <ele>98</ele>
        <time>2019-03-28T12:00:32Z</time>
      </trkpt>
      <trkpt lat="59.981604954748" lon="15.793474459459">
        <ele>98.2</ele>
        <time>2019-03-28T12:00:37Z</time>
      </trkpt>
      <trkpt lat="59.981638398529" lon="15.793742344983">
        <ele>98.6</ele>
        <time>2019-03-28T12:00:43Z</time>
      </trkpt>
      <trkpt lat="59.981709477041" lon="15.79397896602">
        <ele>98.8</ele>
        <time>2019-03-28T12:00:49Z</time>
      </trkpt>
      <trkpt lat="59.981787009616" lon="15.79420024818">
        <ele>99.2</ele>
        <time>2019-03-28T12:00:55Z</time>
      </trkpt>
      <trkpt lat="59.981861943802" lon="15.79441817758">
        <ele>99.2</ele>
        <time>2019-03-28T12:01:01Z</time>
      </trkpt>
      <trkpt lat="59.981894465574" lon="15.794526387909">
        <ele>99.4</ele>
        <time>2019-03-28T12:01:05Z</time>
      </trkpt>
      <trkpt lat="59.981999323143" lon="15.794751525743">
        <ele>100.4</ele>
        <time>2019-03-28T12:01:11Z</time>
      </trkpt>
      <trkpt lat="59.982016757495" lon="15.794789998664">
        <ele>100.4</ele>
        <time>2019-03-28T12:01:13Z</time>
      </trkpt>
      <trkpt lat="59.982123375263" lon="15.795008095702">
        <ele>101.2</ele>
        <time>2019-03-28T12:01:19Z</time>
      </trkpt>
      <trkpt lat="59.982222616959" lon="15.795246476938">
        <ele>101</ele>
        <time>2019-03-28T12:01:25Z</time>
      </trkpt>
      <trkpt lat="59.982316829515" lon="15.795460131569">
        <ele>101.4</ele>
        <time>2019-03-28T12:01:31Z</time>
      </trkpt>
      <trkpt lat="59.98232814508" lon="15.795502879259">
        <ele>101.4</ele>
        <time>2019-03-28T12:01:32Z</time>
      </trkpt>
      <trkpt lat="59.982326636338" lon="15.795590051019">
        <ele>101.4</ele>
        <time>2019-03-28T12:01:34Z</time>
      </trkpt>
      <trkpt lat="59.98223091504" lon="15.795934966204">
        <ele>101.8</ele>
        <time>2019-03-28T12:01:40Z</time>
      </trkpt>
      <trkpt lat="59.98212362672" lon="15.796172090155">
        <ele>101.6</ele>
        <time>2019-03-28T12:01:46Z</time>
      </trkpt>
      <trkpt lat="59.982017511866" lon="15.796390857745">
        <ele>101.2</ele>
        <time>2019-03-28T12:01:52Z</time>
      </trkpt>
      <trkpt lat="59.981951378675" lon="15.796562602876">
        <ele>100.4</ele>
        <time>2019-03-28T12:01:56Z</time>
      </trkpt>
      <trkpt lat="59.981874516652" lon="15.79680115175">
        <ele>100</ele>
        <time>2019-03-28T12:02:02Z</time>
      </trkpt>
      <trkpt lat="59.981819279931" lon="15.797028971792">
        <ele>99.4</ele>
        <time>2019-03-28T12:02:08Z</time>
      </trkpt>
      <trkpt lat="59.981754068749" lon="15.797354440969">
        <ele>98.6</ele>
        <time>2019-03-28T12:02:14Z</time>
      </trkpt>
      <trkpt lat="59.981745854487" lon="15.797400709057">
        <ele>98.4</ele>
        <time>2019-03-28T12:02:15Z</time>
      </trkpt>
      <trkpt lat="59.981736131483" lon="15.797599192449">
        <ele>97.4</ele>
        <time>2019-03-28T12:02:20Z</time>
      </trkpt>
      <trkpt lat="59.981771503101" lon="15.797709665891">
        <ele>96.2</ele>
        <time>2019-03-28T12:02:23Z</time>
      </trkpt>
      <trkpt lat="59.981807377633" lon="15.79777093758">
        <ele>95</ele>
        <time>2019-03-28T12:02:25Z</time>
      </trkpt>
      <trkpt lat="59.981842078699" lon="15.797816283659">
        <ele>94.2</ele>
        <time>2019-03-28T12:02:27Z</time>
      </trkpt>
      <trkpt lat="59.981851550246" lon="15.797847045232">
        <ele>93.8</ele>
        <time>2019-03-28T12:02:28Z</time>
      </trkpt>
      <trkpt lat="59.981846772563" lon="15.797869760181">
        <ele>93.4</ele>
        <time>2019-03-28T12:02:29Z</time>
      </trkpt>
      <trkpt lat="59.981721044063" lon="15.797844195386">
        <ele>92.8</ele>
        <time>2019-03-28T12:02:34Z</time>
      </trkpt>
      <trkpt lat="59.981594477373" lon="15.797700948715">
        <ele>92.4</ele>
        <time>2019-03-28T12:02:40Z</time>
      </trkpt>
      <trkpt lat="59.981445279553" lon="15.797695165204">
        <ele>92.8</ele>
        <time>2019-03-28T12:02:46Z</time>
      </trkpt>
      <trkpt lat="59.981291387869" lon="15.797633977334">
        <ele>93.4</ele>
        <time>2019-03-28T12:02:52Z</time>
      </trkpt>
      <trkpt lat="59.981224416488" lon="15.797585529952">
        <ele>93.8</ele>
        <time>2019-03-28T12:02:55Z</time>
      </trkpt>
      <trkpt lat="59.981089803174" lon="15.797471284655">
        <ele>94.6</ele>
        <time>2019-03-28T12:03:01Z</time>
      </trkpt>
      <trkpt lat="59.98103481791" lon="15.79739626665">
        <ele>95</ele>
        <time>2019-03-28T12:03:04Z</time>
      </trkpt>
      <trkpt lat="59.980924595925" lon="15.797204153502">
        <ele>95</ele>
        <time>2019-03-28T12:03:10Z</time>
      </trkpt>
      <trkpt lat="59.980828204075" lon="15.797012459449">
        <ele>95</ele>
        <time>2019-03-28T12:03:16Z</time>
      </trkpt>
      <trkpt lat="59.98072720218" lon="15.796824453432">
        <ele>95.4</ele>
        <time>2019-03-28T12:03:22Z</time>
      </trkpt>
      <trkpt lat="59.980687891069" lon="15.796767121236">
        <ele>95.4</ele>
        <time>2019-03-28T12:03:24Z</time>
      </trkpt>
      <trkpt lat="59.98057129884" lon="15.796581965065">
        <ele>95.4</ele>
        <time>2019-03-28T12:03:30Z</time>
      </trkpt>
      <trkpt lat="59.980461998864" lon="15.79639043865">
        <ele>95.8</ele>
        <time>2019-03-28T12:03:36Z</time>
      </trkpt>
      <trkpt lat="59.980349597585" lon="15.796209976343">
        <ele>95.8</ele>
        <time>2019-03-28T12:03:42Z</time>
      </trkpt>
      <trkpt lat="59.980291175742" lon="15.796120373832">
        <ele>96</ele>
        <time>2019-03-28T12:03:45Z</time>
      </trkpt>
      <trkpt lat="59.980167877993" lon="15.795942258457">
        <ele>96</ele>
        <time>2019-03-28T12:03:51Z</time>
      </trkpt>
      <trkpt lat="59.980044580244" lon="15.79576933986">
        <ele>96.4</ele>
        <time>2019-03-28T12:03:57Z</time>
      </trkpt>
      <trkpt lat="59.979921114857" lon="15.795607904466">
        <ele>96.4</ele>
        <time>2019-03-28T12:04:03Z</time>
      </trkpt>
      <trkpt lat="59.979810725234" lon="15.795437248982">
        <ele>96.8</ele>
        <time>2019-03-28T12:04:09Z</time>
      </trkpt>
      <trkpt lat="59.97970712495" lon="15.795280004538">
        <ele>96.8</ele>
        <time>2019-03-28T12:04:15Z</time>
      </trkpt>
      <trkpt lat="59.9795939693" lon="15.795104906647">
        <ele>96.8</ele>
        <time>2019-03-28T12:04:21Z</time>
      </trkpt>
      <trkpt lat="59.979484585505" lon="15.794934251163">
        <ele>97</ele>
        <time>2019-03-28T12:04:26Z</time>
      </trkpt>
      <trkpt lat="59.979392468424" lon="15.794789831026">
        <ele>97.6</ele>
        <time>2019-03-28T12:04:32Z</time>
      </trkpt>
      <trkpt lat="59.979283419905" lon="15.794617331524">
        <ele>98</ele>
        <time>2019-03-28T12:04:38Z</time>
      </trkpt>
      <trkpt lat="59.979243941156" lon="15.794558071491">
        <ele>98</ele>
        <time>2019-03-28T12:04:39Z</time>
      </trkpt>
      <trkpt lat="59.979143945089" lon="15.794419770141">
        <ele>98.2</ele>
        <time>2019-03-28T12:04:45Z</time>
      </trkpt>
      <trkpt lat="59.978991813604" lon="15.794238553463">
        <ele>98.4</ele>
        <time>2019-03-28T12:04:51Z</time>
      </trkpt>
      <trkpt lat="59.978862899982" lon="15.794073430033">
        <ele>98.6</ele>
        <time>2019-03-28T12:04:57Z</time>
      </trkpt>
      <trkpt lat="59.978737003844" lon="15.793911827001">
        <ele>99</ele>
        <time>2019-03-28T12:05:03Z</time>
      </trkpt>
      <trkpt lat="59.978622590909" lon="15.793737651119">
        <ele>99</ele>
        <time>2019-03-28T12:05:09Z</time>
      </trkpt>
      <trkpt lat="59.978548997827" lon="15.793624327831">
        <ele>99</ele>
        <time>2019-03-28T12:05:13Z</time>
      </trkpt>
      <trkpt lat="59.97857053931" lon="15.793415869978">
        <ele>99.2</ele>
        <time>2019-03-28T12:05:19Z</time>
      </trkpt>
      <trkpt lat="59.978597445209" lon="15.79328243013">
        <ele>97.8</ele>
        <time>2019-03-28T12:05:22Z</time>
      </trkpt>
      <trkpt lat="59.978629799343" lon="15.793152007766">
        <ele>96.6</ele>
        <time>2019-03-28T12:05:25Z</time>
      </trkpt>
      <trkpt lat="59.978659471269" lon="15.792998199901">
        <ele>95.4</ele>
        <time>2019-03-28T12:05:31Z</time>
      </trkpt>
      <trkpt lat="59.978651592283" lon="15.792982944843">
        <ele>95</ele>
        <time>2019-03-28T12:05:33Z</time>
      </trkpt>
      <trkpt lat="59.978651508464" lon="15.793005659792">
        <ele>95</ele>
        <time>2019-03-28T12:05:39Z</time>
      </trkpt>
      <trkpt lat="59.978627117135" lon="15.7930670153">
        <ele>94.8</ele>
        <time>2019-03-28T12:05:44Z</time>
      </trkpt>
      <trkpt lat="59.978544136325" lon="15.793171034679">
        <ele>95</ele>
        <time>2019-03-28T12:05:49Z</time>
      </trkpt>
      <trkpt lat="59.978512955657" lon="15.793227025771">
        <ele>95.2</ele>
        <time>2019-03-28T12:05:51Z</time>
      </trkpt>
      <trkpt lat="59.978421090033" lon="15.793268013262">
        <ele>96.6</ele>
        <time>2019-03-28T12:05:55Z</time>
      </trkpt>
      <trkpt lat="59.978312209152" lon="15.793265582511">
        <ele>97.8</ele>
        <time>2019-03-28T12:06:01Z</time>
      </trkpt>
      <trkpt lat="59.978194778733" lon="15.793246220322">
        <ele>98.8</ele>
        <time>2019-03-28T12:06:07Z</time>
      </trkpt>
      <trkpt lat="59.978159574753" lon="15.793208920867">
        <ele>99</ele>
        <time>2019-03-28T12:06:08Z</time>
      </trkpt>
      <trkpt lat="59.978060835971" lon="15.793008928733">
        <ele>99.4</ele>
        <time>2019-03-28T12:06:14Z</time>
      </trkpt>
      <trkpt lat="59.977987745803" lon="15.792879093102">
        <ele>99.6</ele>
        <time>2019-03-28T12:06:20Z</time>
      </trkpt>
      <trkpt lat="59.977938879326" lon="15.792825365123">
        <ele>100</ele>
        <time>2019-03-28T12:06:23Z</time>
      </trkpt>
      <trkpt lat="59.97782790297" lon="15.792659906417">
        <ele>99.6</ele>
        <time>2019-03-28T12:06:29Z</time>
      </trkpt>
      <trkpt lat="59.977682309367" lon="15.792444156311">
        <ele>98.8</ele>
        <time>2019-03-28T12:06:36Z</time>
      </trkpt>
      <trkpt lat="59.977564962767" lon="15.792248438946">
        <ele>98</ele>
        <time>2019-03-28T12:06:42Z</time>
      </trkpt>
      <trkpt lat="59.977437474068" lon="15.792067976639">
        <ele>97.8</ele>
        <time>2019-03-28T12:06:48Z</time>
      </trkpt>
      <trkpt lat="59.977418195698" lon="15.792038220894">
        <ele>97.8</ele>
        <time>2019-03-28T12:06:49Z</time>
      </trkpt>
      <trkpt lat="59.977299675632" lon="15.791854405827">
        <ele>97.8</ele>
        <time>2019-03-28T12:06:55Z</time>
      </trkpt>
      <trkpt lat="59.977178138082" lon="15.791670926036">
        <ele>97.4</ele>
        <time>2019-03-28T12:07:01Z</time>
      </trkpt>
      <trkpt lat="59.977068419011" lon="15.791479399621">
        <ele>97.8</ele>
        <time>2019-03-28T12:07:07Z</time>
      </trkpt>
      <trkpt lat="59.976963896718" lon="15.791256357262">
        <ele>97.8</ele>
        <time>2019-03-28T12:07:13Z</time>
      </trkpt>
      <trkpt lat="59.976871109085" lon="15.791032476713">
        <ele>97.8</ele>
        <time>2019-03-28T12:07:19Z</time>
      </trkpt>
      <trkpt lat="59.976772454122" lon="15.790803986119">
        <ele>98</ele>
        <time>2019-03-28T12:07:25Z</time>
      </trkpt>
      <trkpt lat="59.976741021997" lon="15.790723268422">
        <ele>98.2</ele>
        <time>2019-03-28T12:07:27Z</time>
      </trkpt>
      <trkpt lat="59.97664102593" lon="15.790488994317">
        <ele>98.2</ele>
        <time>2019-03-28T12:07:33Z</time>
      </trkpt>
      <trkpt lat="59.976547567745" lon="15.790236782946">
        <ele>98.4</ele>
        <time>2019-03-28T12:07:39Z</time>
      </trkpt>
      <trkpt lat="59.976475986319" lon="15.789979793892">
        <ele>98.6</ele>
        <time>2019-03-28T12:07:45Z</time>
      </trkpt>
      <trkpt lat="59.976462072365" lon="15.789938974039">
        <ele>98.8</ele>
        <time>2019-03-28T12:07:46Z</time>
      </trkpt>
      <trkpt lat="59.976372721311" lon="15.789679386596">
        <ele>99.2</ele>
        <time>2019-03-28T12:07:52Z</time>
      </trkpt>
      <trkpt lat="59.976281190963" lon="15.789436143858">
        <ele>99.2</ele>
        <time>2019-03-28T12:07:58Z</time>
      </trkpt>
      <trkpt lat="59.976182955095" lon="15.789189464541">
        <ele>99.4</ele>
        <time>2019-03-28T12:08:04Z</time>
      </trkpt>
      <trkpt lat="59.976090502738" lon="15.788948652554">
        <ele>99.6</ele>
        <time>2019-03-28T12:08:10Z</time>
      </trkpt>
      <trkpt lat="59.976049766704" lon="15.78881823019">
        <ele>99.8</ele>
        <time>2019-03-28T12:08:13Z</time>
      </trkpt>
      <trkpt lat="59.975976592717" lon="15.788557804557">
        <ele>99.8</ele>
        <time>2019-03-28T12:08:19Z</time>
      </trkpt>
      <trkpt lat="59.97589419864" lon="15.788316741113">
        <ele>100.2</ele>
        <time>2019-03-28T12:08:25Z</time>
      </trkpt>
      <trkpt lat="59.975831585847" lon="15.788063943009">
        <ele>99.6</ele>
        <time>2019-03-28T12:08:31Z</time>
      </trkpt>
      <trkpt lat="59.975748688856" lon="15.787826902877">
        <ele>100</ele>
        <time>2019-03-28T12:08:37Z</time>
      </trkpt>
      <trkpt lat="59.975735026359" lon="15.787781221522">
        <ele>100.2</ele>
        <time>2019-03-28T12:08:38Z</time>
      </trkpt>
      <trkpt lat="59.975681885113" lon="15.787489531402">
        <ele>100.8</ele>
        <time>2019-03-28T12:08:44Z</time>
      </trkpt>
      <trkpt lat="59.975638634509" lon="15.787218041661">
        <ele>100.6</ele>
        <time>2019-03-28T12:08:50Z</time>
      </trkpt>
      <trkpt lat="59.975570405843" lon="15.786936828916">
        <ele>100.6</ele>
        <time>2019-03-28T12:08:56Z</time>
      </trkpt>
      <trkpt lat="59.97554215884" lon="15.786685204278">
        <ele>100.6</ele>
        <time>2019-03-28T12:09:02Z</time>
      </trkpt>
      <trkpt lat="59.975496142209" lon="15.786345988785">
        <ele>100.4</ele>
        <time>2019-03-28T12:09:08Z</time>
      </trkpt>
      <trkpt lat="59.975474852183" lon="15.786153959456">
        <ele>100.4</ele>
        <time>2019-03-28T12:09:14Z</time>
      </trkpt>
      <trkpt lat="59.975403606033" lon="15.785867047019">
        <ele>100.6</ele>
        <time>2019-03-28T12:09:20Z</time>
      </trkpt>
      <trkpt lat="59.975293803143" lon="15.785652135103">
        <ele>100.4</ele>
        <time>2019-03-28T12:09:26Z</time>
      </trkpt>
      <trkpt lat="59.97518592809" lon="15.785458261756">
        <ele>100.2</ele>
        <time>2019-03-28T12:09:32Z</time>
      </trkpt>
      <trkpt lat="59.975082495444" lon="15.785276290707">
        <ele>100.8</ele>
        <time>2019-03-28T12:09:38Z</time>
      </trkpt>
      <trkpt lat="59.975026839628" lon="15.785177635744">
        <ele>101</ele>
        <time>2019-03-28T12:09:41Z</time>
      </trkpt>
      <trkpt lat="59.974901027309" lon="15.785012763771">
        <ele>100.6</ele>
        <time>2019-03-28T12:09:47Z</time>
      </trkpt>
      <trkpt lat="59.974771610773" lon="15.784862141028">
        <ele>100.4</ele>
        <time>2019-03-28T12:09:53Z</time>
      </trkpt>
      <trkpt lat="59.974633141785" lon="15.784742363677">
        <ele>100.8</ele>
        <time>2019-03-28T12:09:59Z</time>
      </trkpt>
      <trkpt lat="59.974492828779" lon="15.78462392743">
        <ele>101</ele>
        <time>2019-03-28T12:10:05Z</time>
      </trkpt>
      <trkpt lat="59.974371542686" lon="15.784418403242">
        <ele>100.6</ele>
        <time>2019-03-28T12:10:11Z</time>
      </trkpt>
      <trkpt lat="59.974272552447" lon="15.784165605138">
        <ele>99.8</ele>
        <time>2019-03-28T12:10:17Z</time>
      </trkpt>
      <trkpt lat="59.974237683743" lon="15.784090168038">
        <ele>99.4</ele>
        <time>2019-03-28T12:10:20Z</time>
      </trkpt>
      <trkpt lat="59.974098376565" lon="15.783834017174">
        <ele>99</ele>
        <time>2019-03-28T12:10:26Z</time>
      </trkpt>
      <trkpt lat="59.974035344677" lon="15.783724465741">
        <ele>98.8</ele>
        <time>2019-03-28T12:10:29Z</time>
      </trkpt>
      <trkpt lat="59.973915734964" lon="15.783499160269">
        <ele>97.8</ele>
        <time>2019-03-28T12:10:35Z</time>
      </trkpt>
      <trkpt lat="59.973878686966" lon="15.78342447754">
        <ele>97.8</ele>
        <time>2019-03-28T12:10:37Z</time>
      </trkpt>
      <trkpt lat="59.973777098338" lon="15.783186766856">
        <ele>97.4</ele>
        <time>2019-03-28T12:10:43Z</time>
      </trkpt>
      <trkpt lat="59.973711719518" lon="15.783019380313">
        <ele>96.6</ele>
        <time>2019-03-28T12:10:47Z</time>
      </trkpt>
      <trkpt lat="59.973617423143" lon="15.78278158581">
        <ele>96.2</ele>
        <time>2019-03-28T12:10:53Z</time>
      </trkpt>
      <trkpt lat="59.973521618026" lon="15.782529122982">
        <ele>96</ele>
        <time>2019-03-28T12:10:59Z</time>
      </trkpt>
      <trkpt lat="59.973431093506" lon="15.782327705925">
        <ele>95.4</ele>
        <time>2019-03-28T12:11:04Z</time>
      </trkpt>
      <trkpt lat="59.973314836553" lon="15.782082032436">
        <ele>95.2</ele>
        <time>2019-03-28T12:11:10Z</time>
      </trkpt>
      <trkpt lat="59.973210817174" lon="15.781827557952">
        <ele>95</ele>
        <time>2019-03-28T12:11:16Z</time>
      </trkpt>
      <trkpt lat="59.973129093649" lon="15.781577861151">
        <ele>94.8</ele>
        <time>2019-03-28T12:11:22Z</time>
      </trkpt>
      <trkpt lat="59.97311056965" lon="15.781477781265">
        <ele>94.8</ele>
        <time>2019-03-28T12:11:25Z</time>
      </trkpt>
      <trkpt lat="59.973028594668" lon="15.781248201024">
        <ele>94.6</ele>
        <time>2019-03-28T12:11:31Z</time>
      </trkpt>
      <trkpt lat="59.972943518383" lon="15.781027673235">
        <ele>94.8</ele>
        <time>2019-03-28T12:11:37Z</time>
      </trkpt>
      <trkpt lat="59.972853412958" lon="15.780813599509">
        <ele>95</ele>
        <time>2019-03-28T12:11:43Z</time>
      </trkpt>
      <trkpt lat="59.972753835986" lon="15.780605896027">
        <ele>94.8</ele>
        <time>2019-03-28T12:11:49Z</time>
      </trkpt>
      <trkpt lat="59.972633136626" lon="15.780413028508">
        <ele>95.2</ele>
        <time>2019-03-28T12:11:55Z</time>
      </trkpt>
      <trkpt lat="59.972519561881" lon="15.780219825713">
        <ele>95</ele>
        <time>2019-03-28T12:12:01Z</time>
      </trkpt>
      <trkpt lat="59.972420236366" lon="15.780009440023">
        <ele>95.2</ele>
        <time>2019-03-28T12:12:07Z</time>
      </trkpt>
      <trkpt lat="59.972314624426" lon="15.779795450116">
        <ele>95.2</ele>
        <time>2019-03-28T12:12:13Z</time>
      </trkpt>
      <trkpt lat="59.972231811254" lon="15.779586237892">
        <ele>95.2</ele>
        <time>2019-03-28T12:12:19Z</time>
      </trkpt>
      <trkpt lat="59.972148076073" lon="15.779379456419">
        <ele>96</ele>
        <time>2019-03-28T12:12:25Z</time>
      </trkpt>
      <trkpt lat="59.971955795287" lon="15.778958433582">
        <ele>95.2</ele>
        <time>2019-03-28T12:12:37Z</time>
      </trkpt>
      <trkpt lat="59.971860157808" lon="15.778743605485">
        <ele>95.6</ele>
        <time>2019-03-28T12:12:43Z</time>
      </trkpt>
      <trkpt lat="59.971759323551" lon="15.778526178999">
        <ele>95.2</ele>
        <time>2019-03-28T12:12:49Z</time>
      </trkpt>
      <trkpt lat="59.971639043286" lon="15.778335742231">
        <ele>95.2</ele>
        <time>2019-03-28T12:12:55Z</time>
      </trkpt>
      <trkpt lat="59.971516164632" lon="15.778140443961">
        <ele>95.6</ele>
        <time>2019-03-28T12:13:01Z</time>
      </trkpt>
      <trkpt lat="59.971457072237" lon="15.778026785397">
        <ele>95.6</ele>
        <time>2019-03-28T12:13:04Z</time>
      </trkpt>
      <trkpt lat="59.971347772261" lon="15.77782453015">
        <ele>95.8</ele>
        <time>2019-03-28T12:13:10Z</time>
      </trkpt>
      <trkpt lat="59.97124392052" lon="15.777630740622">
        <ele>95.4</ele>
        <time>2019-03-28T12:13:16Z</time>
      </trkpt>
      <trkpt lat="59.971157000217" lon="15.777429826479">
        <ele>95.4</ele>
        <time>2019-03-28T12:13:22Z</time>
      </trkpt>
      <trkpt lat="59.971080641108" lon="15.777220027522">
        <ele>95.8</ele>
        <time>2019-03-28T12:13:28Z</time>
      </trkpt>
      <trkpt lat="59.970993553167" lon="15.777012994592">
        <ele>96</ele>
        <time>2019-03-28T12:13:34Z</time>
      </trkpt>
      <trkpt lat="59.970895065842" lon="15.776804620558">
        <ele>96</ele>
        <time>2019-03-28T12:13:40Z</time>
      </trkpt>
      <trkpt lat="59.970835051438" lon="15.776658104946">
        <ele>96.4</ele>
        <time>2019-03-28T12:13:44Z</time>
      </trkpt>
      <trkpt lat="59.970737402303" lon="15.776457777536">
        <ele>96.6</ele>
        <time>2019-03-28T12:13:50Z</time>
      </trkpt>
      <trkpt lat="59.970647883611" lon="15.776264742379">
        <ele>96.6</ele>
        <time>2019-03-28T12:13:56Z</time>
      </trkpt>
      <trkpt lat="59.970550066838" lon="15.776071539584">
        <ele>97.2</ele>
        <time>2019-03-28T12:14:02Z</time>
      </trkpt>
      <trkpt lat="59.970512767383" lon="15.776007585687">
        <ele>97.6</ele>
        <time>2019-03-28T12:14:04Z</time>
      </trkpt>
      <trkpt lat="59.970383015571" lon="15.775831901063">
        <ele>97.8</ele>
        <time>2019-03-28T12:14:10Z</time>
      </trkpt>
      <trkpt lat="59.970264579324" lon="15.775663424873">
        <ele>98.6</ele>
        <time>2019-03-28T12:14:15Z</time>
      </trkpt>
      <trkpt lat="59.9701391861" lon="15.775443064722">
        <ele>99</ele>
        <time>2019-03-28T12:14:21Z</time>
      </trkpt>
      <trkpt lat="59.970086631587" lon="15.775336027859">
        <ele>99.6</ele>
        <time>2019-03-28T12:14:24Z</time>
      </trkpt>
      <trkpt lat="59.969960903087" lon="15.775114494242">
        <ele>99.8</ele>
        <time>2019-03-28T12:14:30Z</time>
      </trkpt>
      <trkpt lat="59.969858224812" lon="15.77485649936">
        <ele>100.2</ele>
        <time>2019-03-28T12:14:36Z</time>
      </trkpt>
      <trkpt lat="59.969750182121" lon="15.774618201943">
        <ele>100.6</ele>
        <time>2019-03-28T12:14:42Z</time>
      </trkpt>
      <trkpt lat="59.969735597615" lon="15.774579812841">
        <ele>100.8</ele>
        <time>2019-03-28T12:14:43Z</time>
      </trkpt>
      <trkpt lat="59.969600062292" lon="15.774355345559">
        <ele>100.8</ele>
        <time>2019-03-28T12:14:49Z</time>
      </trkpt>
      <trkpt lat="59.969490175583" lon="15.774126771146">
        <ele>101.2</ele>
        <time>2019-03-28T12:14:55Z</time>
      </trkpt>
      <trkpt lat="59.969418929433" lon="15.773980339353">
        <ele>102.2</ele>
        <time>2019-03-28T12:14:59Z</time>
      </trkpt>
      <trkpt lat="59.969318095176" lon="15.773742125755">
        <ele>102.4</ele>
        <time>2019-03-28T12:15:05Z</time>
      </trkpt>
      <trkpt lat="59.96921550072" lon="15.77349863156">
        <ele>102.2</ele>
        <time>2019-03-28T12:15:11Z</time>
      </trkpt>
      <trkpt lat="59.969100249595" lon="15.773253796261">
        <ele>102.4</ele>
        <time>2019-03-28T12:15:17Z</time>
      </trkpt>
      <trkpt lat="59.96898835123" lon="15.773014073921">
        <ele>103</ele>
        <time>2019-03-28T12:15:24Z</time>
      </trkpt>
      <trkpt lat="59.969100501052" lon="15.773165115759">
        <ele>103</ele>
        <time>2019-03-28T12:15:30Z</time>
      </trkpt>
      <trkpt lat="59.969149870443" lon="15.773251616967">
        <ele>103.2</ele>
        <time>2019-03-28T12:15:32Z</time>
      </trkpt>
      <trkpt lat="59.969283645567" lon="15.77354808477">
        <ele>103</ele>
        <time>2019-03-28T12:15:38Z</time>
      </trkpt>
      <trkpt lat="59.969404596384" lon="15.773807169299">
        <ele>102.6</ele>
        <time>2019-03-28T12:15:44Z</time>
      </trkpt>
      <trkpt lat="59.969522362079" lon="15.774059883584">
        <ele>102.4</ele>
        <time>2019-03-28T12:15:50Z</time>
      </trkpt>
      <trkpt lat="59.969560918819" lon="15.774140517462">
        <ele>102.2</ele>
        <time>2019-03-28T12:15:52Z</time>
      </trkpt>
      <trkpt lat="59.969670805528" lon="15.774380491259">
        <ele>101.6</ele>
        <time>2019-03-28T12:15:58Z</time>
      </trkpt>
      <trkpt lat="59.96981564476" lon="15.774630523336">
        <ele>101.4</ele>
        <time>2019-03-28T12:16:04Z</time>
      </trkpt>
      <trkpt lat="59.969954616662" lon="15.774886003648">
        <ele>101.6</ele>
        <time>2019-03-28T12:16:10Z</time>
      </trkpt>
      <trkpt lat="59.970045057363" lon="15.775096808433">
        <ele>101</ele>
        <time>2019-03-28T12:16:15Z</time>
      </trkpt>
      <trkpt lat="59.970174725356" lon="15.775339380619">
        <ele>100.4</ele>
        <time>2019-03-28T12:16:21Z</time>
      </trkpt>
      <trkpt lat="59.970267093894" lon="15.775563847901">
        <ele>99.8</ele>
        <time>2019-03-28T12:16:26Z</time>
      </trkpt>
      <trkpt lat="59.970395839878" lon="15.775794936884">
        <ele>99</ele>
        <time>2019-03-28T12:16:32Z</time>
      </trkpt>
      <trkpt lat="59.970442359423" lon="15.775869451975">
        <ele>98.8</ele>
        <time>2019-03-28T12:16:34Z</time>
      </trkpt>
      <trkpt lat="59.970564567525" lon="15.776098948397">
        <ele>98.2</ele>
        <time>2019-03-28T12:16:40Z</time>
      </trkpt>
      <trkpt lat="59.970635897494" lon="15.776234735177">
        <ele>97.8</ele>
        <time>2019-03-28T12:16:43Z</time>
      </trkpt>
      <trkpt lat="59.970783921848" lon="15.776535310111">
        <ele>97</ele>
        <time>2019-03-28T12:16:49Z</time>
      </trkpt>
      <trkpt lat="59.97092289375" lon="15.776831275">
        <ele>96.8</ele>
        <time>2019-03-28T12:16:55Z</time>
      </trkpt>
      <trkpt lat="59.970945692518" lon="15.776878716554">
        <ele>96.8</ele>
        <time>2019-03-28T12:16:56Z</time>
      </trkpt>
      <trkpt lat="59.971097991641" lon="15.777155570711">
        <ele>96.4</ele>
        <time>2019-03-28T12:17:02Z</time>
      </trkpt>
      <trkpt lat="59.971226989082" lon="15.777428401556">
        <ele>96.4</ele>
        <time>2019-03-28T12:17:08Z</time>
      </trkpt>
      <trkpt lat="59.971366631536" lon="15.777697628184">
        <ele>96.2</ele>
        <time>2019-03-28T12:17:14Z</time>
      </trkpt>
      <trkpt lat="59.971497556814" lon="15.777952270306">
        <ele>96.2</ele>
        <time>2019-03-28T12:17:20Z</time>
      </trkpt>
      <trkpt lat="59.971622866219" lon="15.77820339203">
        <ele>96</ele>
        <time>2019-03-28T12:17:26Z</time>
      </trkpt>
      <trkpt lat="59.971745241959" lon="15.778444371655">
        <ele>96</ele>
        <time>2019-03-28T12:17:32Z</time>
      </trkpt>
      <trkpt lat="59.97188010673" lon="15.778701863623">
        <ele>96.2</ele>
        <time>2019-03-28T12:17:38Z</time>
      </trkpt>
      <trkpt lat="59.972021928478" lon="15.778962959808">
        <ele>96</ele>
        <time>2019-03-28T12:17:44Z</time>
      </trkpt>
      <trkpt lat="59.972148243711" lon="15.779212740428">
        <ele>96.4</ele>
        <time>2019-03-28T12:17:50Z</time>
      </trkpt>
      <trkpt lat="59.972272295831" lon="15.779477859925">
        <ele>96.4</ele>
        <time>2019-03-28T12:17:56Z</time>
      </trkpt>
      <trkpt lat="59.972391234992" lon="15.779762509249">
        <ele>96.4</ele>
        <time>2019-03-28T12:18:02Z</time>
      </trkpt>
      <trkpt lat="59.972509922696" lon="15.780028047841">
        <ele>95.8</ele>
        <time>2019-03-28T12:18:08Z</time>
      </trkpt>
      <trkpt lat="59.972610840772" lon="15.780195602022">
        <ele>95.8</ele>
        <time>2019-03-28T12:18:12Z</time>
      </trkpt>
      <trkpt lat="59.972750902321" lon="15.780466421211">
        <ele>95.4</ele>
        <time>2019-03-28T12:18:18Z</time>
      </trkpt>
      <trkpt lat="59.972874702984" lon="15.780758698064">
        <ele>95.2</ele>
        <time>2019-03-28T12:18:24Z</time>
      </trkpt>
      <trkpt lat="59.972993306869" lon="15.781024152837">
        <ele>95.4</ele>
        <time>2019-03-28T12:18:30Z</time>
      </trkpt>
      <trkpt lat="59.973117778084" lon="15.781306287591">
        <ele>95.6</ele>
        <time>2019-03-28T12:18:36Z</time>
      </trkpt>
      <trkpt lat="59.973216852142" lon="15.781639551935">
        <ele>95.4</ele>
        <time>2019-03-28T12:18:42Z</time>
      </trkpt>
      <trkpt lat="59.973330343068" lon="15.781942222344">
        <ele>95.6</ele>
        <time>2019-03-28T12:18:48Z</time>
      </trkpt>
      <trkpt lat="59.973456825939" lon="15.782188482566">
        <ele>95.8</ele>
        <time>2019-03-28T12:18:54Z</time>
      </trkpt>
      <trkpt lat="59.973552547237" lon="15.782449411113">
        <ele>96</ele>
        <time>2019-03-28T12:19:00Z</time>
      </trkpt>
      <trkpt lat="59.973661428118" lon="15.782681589743">
        <ele>96.4</ele>
        <time>2019-03-28T12:19:06Z</time>
      </trkpt>
      <trkpt lat="59.973749186611" lon="15.782843695689">
        <ele>96.8</ele>
        <time>2019-03-28T12:19:10Z</time>
      </trkpt>
      <trkpt lat="59.973867203763" lon="15.783130440488">
        <ele>97.4</ele>
        <time>2019-03-28T12:19:16Z</time>
      </trkpt>
      <trkpt lat="59.973996201204" lon="15.783395308528">
        <ele>97.8</ele>
        <time>2019-03-28T12:19:22Z</time>
      </trkpt>
      <trkpt lat="59.974035512315" lon="15.783484911039">
        <ele>97.8</ele>
        <time>2019-03-28T12:19:24Z</time>
      </trkpt>
      <trkpt lat="59.974149841431" lon="15.783732512365">
        <ele>98.4</ele>
        <time>2019-03-28T12:19:30Z</time>
      </trkpt>
      <trkpt lat="59.974232403146" lon="15.783943400969">
        <ele>99</ele>
        <time>2019-03-28T12:19:35Z</time>
      </trkpt>
      <trkpt lat="59.974314545766" lon="15.784191924304">
        <ele>99.4</ele>
        <time>2019-03-28T12:19:41Z</time>
      </trkpt>
      <trkpt lat="59.974352683411" lon="15.784276246218">
        <ele>100</ele>
        <time>2019-03-28T12:19:43Z</time>
      </trkpt>
      <trkpt lat="59.974455780781" lon="15.784496941645">
        <ele>100.8</ele>
        <time>2019-03-28T12:19:49Z</time>
      </trkpt>
      <trkpt lat="59.974505066353" lon="15.784547316864">
        <ele>101.2</ele>
        <time>2019-03-28T12:19:51Z</time>
      </trkpt>
      <trkpt lat="59.974640182581" lon="15.7846683515">
        <ele>101.2</ele>
        <time>2019-03-28T12:19:57Z</time>
      </trkpt>
      <trkpt lat="59.974813017359" lon="15.78481168199">
        <ele>101.4</ele>
        <time>2019-03-28T12:20:03Z</time>
      </trkpt>
      <trkpt lat="59.974989875449" lon="15.784982505112">
        <ele>101</ele>
        <time>2019-03-28T12:20:09Z</time>
      </trkpt>
      <trkpt lat="59.975136810156" lon="15.78521485138">
        <ele>101.4</ele>
        <time>2019-03-28T12:20:15Z</time>
      </trkpt>
      <trkpt lat="59.975257090421" lon="15.785446862372">
        <ele>101.4</ele>
        <time>2019-03-28T12:20:21Z</time>
      </trkpt>
      <trkpt lat="59.975406204422" lon="15.78575045479">
        <ele>101</ele>
        <time>2019-03-28T12:20:28Z</time>
      </trkpt>
      <trkpt lat="59.975517180778" lon="15.786070811008">
        <ele>101.2</ele>
        <time>2019-03-28T12:20:34Z</time>
      </trkpt>
      <trkpt lat="59.975567136902" lon="15.786448415603">
        <ele>101</ele>
        <time>2019-03-28T12:20:40Z</time>
      </trkpt>
      <trkpt lat="59.97559999395" lon="15.786732897289">
        <ele>101.4</ele>
        <time>2019-03-28T12:20:46Z</time>
      </trkpt>
      <trkpt lat="59.97567040191" lon="15.787119135241">
        <ele>101.6</ele>
        <time>2019-03-28T12:20:52Z</time>
      </trkpt>
      <trkpt lat="59.975718765473" lon="15.787462290227">
        <ele>101.6</ele>
        <time>2019-03-28T12:20:58Z</time>
      </trkpt>
      <trkpt lat="59.975762518991" lon="15.787768983948">
        <ele>102</ele>
        <time>2019-03-28T12:21:04Z</time>
      </trkpt>
      <trkpt lat="59.975827562535" lon="15.788074420384">
        <ele>101.2</ele>
        <time>2019-03-28T12:21:10Z</time>
      </trkpt>
      <trkpt lat="59.97591347701" lon="15.788401063027">
        <ele>100.8</ele>
        <time>2019-03-28T12:21:16Z</time>
      </trkpt>
      <trkpt lat="59.976006432281" lon="15.788650759828">
        <ele>100.8</ele>
        <time>2019-03-28T12:21:22Z</time>
      </trkpt>
      <trkpt lat="59.976137189921" lon="15.788963907612">
        <ele>100.6</ele>
        <time>2019-03-28T12:21:27Z</time>
      </trkpt>
      <trkpt lat="59.976251519037" lon="15.789224081788">
        <ele>100.2</ele>
        <time>2019-03-28T12:21:33Z</time>
      </trkpt>
      <trkpt lat="59.976384372152" lon="15.789511664777">
        <ele>100.2</ele>
        <time>2019-03-28T12:21:39Z</time>
      </trkpt>
      <trkpt lat="59.976408428205" lon="15.789557597589">
        <ele>100</ele>
        <time>2019-03-28T12:21:40Z</time>
      </trkpt>
      <trkpt lat="59.976530720126" lon="15.789855741772">
        <ele>99.8</ele>
        <time>2019-03-28T12:21:46Z</time>
      </trkpt>
      <trkpt lat="59.976633817496" lon="15.790116167405">
        <ele>99.6</ele>
        <time>2019-03-28T12:21:52Z</time>
      </trkpt>
      <trkpt lat="59.976737250142" lon="15.790422442031">
        <ele>99.4</ele>
        <time>2019-03-28T12:21:58Z</time>
      </trkpt>
      <trkpt lat="59.976857614226" lon="15.790794598391">
        <ele>99</ele>
        <time>2019-03-28T12:22:04Z</time>
      </trkpt>
      <trkpt lat="59.976976385749" lon="15.791067680693">
        <ele>98.6</ele>
        <time>2019-03-28T12:22:10Z</time>
      </trkpt>
      <trkpt lat="59.977091804512" lon="15.7913571077">
        <ele>98.4</ele>
        <time>2019-03-28T12:22:16Z</time>
      </trkpt>
      <trkpt lat="59.977221388686" lon="15.791615354039">
        <ele>98.4</ele>
        <time>2019-03-28T12:22:22Z</time>
      </trkpt>
      <trkpt lat="59.97734175277" lon="15.791870499075">
        <ele>98.2</ele>
        <time>2019-03-28T12:22:28Z</time>
      </trkpt>
      <trkpt lat="59.977477791007" lon="15.792090440131">
        <ele>98.4</ele>
        <time>2019-03-28T12:22:34Z</time>
      </trkpt>
      <trkpt lat="59.977630173949" lon="15.792304597676">
        <ele>98.4</ele>
        <time>2019-03-28T12:22:40Z</time>
      </trkpt>
      <trkpt lat="59.977807702591" lon="15.792504673629">
        <ele>99.2</ele>
        <time>2019-03-28T12:22:46Z</time>
      </trkpt>
      <trkpt lat="59.977962097189" lon="15.79269737351">
        <ele>99.4</ele>
        <time>2019-03-28T12:22:52Z</time>
      </trkpt>
      <trkpt lat="59.978094615028" lon="15.792862748397">
        <ele>100</ele>
        <time>2019-03-28T12:22:58Z</time>
      </trkpt>
      <trkpt lat="59.978219756795" lon="15.793055364459">
        <ele>100</ele>
        <time>2019-03-28T12:23:02Z</time>
      </trkpt>
      <trkpt lat="59.978373397022" lon="15.79326985728">
        <ele>100.2</ele>
        <time>2019-03-28T12:23:08Z</time>
      </trkpt>
      <trkpt lat="59.978524103584" lon="15.793480997341">
        <ele>100.4</ele>
        <time>2019-03-28T12:23:14Z</time>
      </trkpt>
      <trkpt lat="59.978669613368" lon="15.793690544841">
        <ele>100.6</ele>
        <time>2019-03-28T12:23:20Z</time>
      </trkpt>
      <trkpt lat="59.978826606355" lon="15.793867822026">
        <ele>100</ele>
        <time>2019-03-28T12:23:26Z</time>
      </trkpt>
      <trkpt lat="59.978974630709" lon="15.794067981798">
        <ele>99.8</ele>
        <time>2019-03-28T12:23:32Z</time>
      </trkpt>
      <trkpt lat="59.979128019479" lon="15.794285156827">
        <ele>99.6</ele>
        <time>2019-03-28T12:23:38Z</time>
      </trkpt>
      <trkpt lat="59.979270511779" lon="15.794509121195">
        <ele>99.2</ele>
        <time>2019-03-28T12:23:44Z</time>
      </trkpt>
      <trkpt lat="59.979341757929" lon="15.794624456139">
        <ele>99</ele>
        <time>2019-03-28T12:23:47Z</time>
      </trkpt>
      <trkpt lat="59.97949003374" lon="15.794851773267">
        <ele>98.8</ele>
        <time>2019-03-28T12:23:53Z</time>
      </trkpt>
      <trkpt lat="59.979622719217" lon="15.795064924984">
        <ele>98.2</ele>
        <time>2019-03-28T12:23:59Z</time>
      </trkpt>
      <trkpt lat="59.979761272024" lon="15.795241531617">
        <ele>98</ele>
        <time>2019-03-28T12:24:03Z</time>
      </trkpt>
      <trkpt lat="59.97990912874" lon="15.795424676132">
        <ele>97.6</ele>
        <time>2019-03-28T12:24:09Z</time>
      </trkpt>
      <trkpt lat="59.980031336842" lon="15.79561259833">
        <ele>97.4</ele>
        <time>2019-03-28T12:24:15Z</time>
      </trkpt>
      <trkpt lat="59.980189335657" lon="15.795821726735">
        <ele>97.2</ele>
        <time>2019-03-28T12:24:20Z</time>
      </trkpt>
      <trkpt lat="59.980275082494" lon="15.795967320338">
        <ele>96.8</ele>
        <time>2019-03-28T12:24:24Z</time>
      </trkpt>
      <trkpt lat="59.980396787682" lon="15.796175442915">
        <ele>96.8</ele>
        <time>2019-03-28T12:24:30Z</time>
      </trkpt>
      <trkpt lat="59.980501309975" lon="15.796352384824">
        <ele>96.6</ele>
        <time>2019-03-28T12:24:36Z</time>
      </trkpt>
      <trkpt lat="59.980625110638" lon="15.796579366676">
        <ele>96.4</ele>
        <time>2019-03-28T12:24:42Z</time>
      </trkpt>
      <trkpt lat="59.980770704241" lon="15.796846162553">
        <ele>96.2</ele>
        <time>2019-03-28T12:24:48Z</time>
      </trkpt>
      <trkpt lat="59.980903138261" lon="15.797079179373">
        <ele>96</ele>
        <time>2019-03-28T12:24:54Z</time>
      </trkpt>
      <trkpt lat="59.980973881497" lon="15.797194011403">
        <ele>95.6</ele>
        <time>2019-03-28T12:24:57Z</time>
      </trkpt>
      <trkpt lat="59.981111009381" lon="15.797359553928">
        <ele>95.2</ele>
        <time>2019-03-28T12:25:03Z</time>
      </trkpt>
      <trkpt lat="59.981269762567" lon="15.797434404295">
        <ele>95.2</ele>
        <time>2019-03-28T12:25:08Z</time>
      </trkpt>
      <trkpt lat="59.981289124756" lon="15.79741135407">
        <ele>95</ele>
        <time>2019-03-28T12:25:10Z</time>
      </trkpt>
      <trkpt lat="59.981464390285" lon="15.79730574213">
        <ele>95.6</ele>
        <time>2019-03-28T12:25:16Z</time>
      </trkpt>
      <trkpt lat="59.981524153232" lon="15.797311777098">
        <ele>96.6</ele>
        <time>2019-03-28T12:25:19Z</time>
      </trkpt>
      <trkpt lat="59.981650636103" lon="15.797163333649">
        <ele>97.4</ele>
        <time>2019-03-28T12:25:25Z</time>
      </trkpt>
      <trkpt lat="59.981687013549" lon="15.797027798326">
        <ele>97.6</ele>
        <time>2019-03-28T12:25:27Z</time>
      </trkpt>
      <trkpt lat="59.981737137311" lon="15.796827638554">
        <ele>98.6</ele>
        <time>2019-03-28T12:25:31Z</time>
      </trkpt>
      <trkpt lat="59.981799163371" lon="15.796590933698">
        <ele>99.8</ele>
        <time>2019-03-28T12:25:37Z</time>
      </trkpt>
      <trkpt lat="59.981901338732" lon="15.796294549714">
        <ele>100.8</ele>
        <time>2019-03-28T12:25:43Z</time>
      </trkpt>
      <trkpt lat="59.981936123617" lon="15.796208467601">
        <ele>101</ele>
        <time>2019-03-28T12:25:45Z</time>
      </trkpt>
      <trkpt lat="59.98205154238" lon="15.795963045569">
        <ele>101.4</ele>
        <time>2019-03-28T12:25:51Z</time>
      </trkpt>
      <trkpt lat="59.98216385984" lon="15.795710498922">
        <ele>101.6</ele>
        <time>2019-03-28T12:25:57Z</time>
      </trkpt>
      <trkpt lat="59.982162602555" lon="15.795361057511">
        <ele>101.6</ele>
        <time>2019-03-28T12:26:03Z</time>
      </trkpt>
      <trkpt lat="59.982083980333" lon="15.795115719298">
        <ele>101.4</ele>
        <time>2019-03-28T12:26:09Z</time>
      </trkpt>
      <trkpt lat="59.981994042546" lon="15.794802236238">
        <ele>101.4</ele>
        <time>2019-03-28T12:26:15Z</time>
      </trkpt>
      <trkpt lat="59.981894465574" lon="15.794516581086">
        <ele>101.2</ele>
        <time>2019-03-28T12:26:21Z</time>
      </trkpt>
      <trkpt lat="59.981895387583" lon="15.794408286938">
        <ele>101.2</ele>
        <time>2019-03-28T12:26:23Z</time>
      </trkpt>
      <trkpt lat="59.981963783887" lon="15.794061276278">
        <ele>101.6</ele>
        <time>2019-03-28T12:26:29Z</time>
      </trkpt>
      <trkpt lat="59.982075682252" lon="15.793763048276">
        <ele>101.8</ele>
        <time>2019-03-28T12:26:35Z</time>
      </trkpt>
      <trkpt lat="59.982097223735" lon="15.793722647518">
        <ele>102</ele>
        <time>2019-03-28T12:26:36Z</time>
      </trkpt>
      <trkpt lat="59.982196465431" lon="15.793482589902">
        <ele>102.4</ele>
        <time>2019-03-28T12:26:42Z</time>
      </trkpt>
      <trkpt lat="59.982204428236" lon="15.793400363463">
        <ele>102.4</ele>
        <time>2019-03-28T12:26:44Z</time>
      </trkpt>
      <trkpt lat="59.982124800186" lon="15.793096687226">
        <ele>102.4</ele>
        <time>2019-03-28T12:26:50Z</time>
      </trkpt>
      <trkpt lat="59.982128823498" lon="15.792709024351">
        <ele>100.8</ele>
        <time>2019-03-28T12:26:56Z</time>
      </trkpt>
      <trkpt lat="59.982167044962" lon="15.792455723333">
        <ele>99.6</ele>
        <time>2019-03-28T12:27:01Z</time>
      </trkpt>
    </trkseg>
  </trk>
</gpx>